createdAt,value
2023-03-06T00:00:26.832Z,95734.28
2023-03-06T00:02:53.790Z,95731.84
2023-03-06T00:05:20.822Z,95731.03
2023-03-06T00:07:47.903Z,95727.81
2023-03-06T00:10:22.386Z,95727.81
2023-03-06T00:12:52.105Z,95722.78
2023-03-06T00:15:19.528Z,95713.72
2023-03-06T00:17:46.448Z,95718.09
2023-03-06T00:20:14.000Z,95719.16
2023-03-06T00:22:41.481Z,95716.94
2023-03-06T00:25:13.037Z,95717.56
2023-03-06T00:27:40.203Z,95712.97
2023-03-06T00:30:08.886Z,95703.53
2023-03-06T00:32:35.800Z,95706.16
2023-03-06T00:35:02.697Z,95694.38
2023-03-06T00:37:29.511Z,95687.19
2023-03-06T00:39:56.373Z,95689.16
2023-03-06T00:42:23.258Z,95689.16
2023-03-06T00:44:50.105Z,95686.84
2023-03-06T00:47:17.283Z,95682.78
2023-03-06T00:49:45.421Z,95673.81
2023-03-06T00:52:12.950Z,95676.75
2023-03-06T00:54:40.314Z,95665.81
2023-03-06T00:57:07.415Z,95662.94
2023-03-06T00:59:34.377Z,95655.75
2023-03-06T01:02:01.389Z,95661.78
2023-03-06T01:04:28.283Z,95650.53
2023-03-06T01:06:55.166Z,95651.81
2023-03-06T01:09:22.042Z,95656.72
2023-03-06T01:11:48.834Z,95646.31
2023-03-06T01:14:15.667Z,95640.13
2023-03-06T01:16:42.534Z,95638.16
2023-03-06T01:19:09.782Z,95631.66
2023-03-06T01:21:36.597Z,95632.69
2023-03-06T01:24:03.453Z,95625.22
2023-03-06T01:26:30.272Z,95623.97
2023-03-06T01:28:59.751Z,95618.38
2023-03-06T01:31:26.872Z,95618.84
2023-03-06T01:33:53.699Z,95610.84
2023-03-06T01:36:20.664Z,95607.25
2023-03-06T01:38:47.485Z,95603.03
2023-03-06T01:41:15.861Z,95590.00
2023-03-06T01:43:45.547Z,95594.84
2023-03-06T01:46:42.268Z,95588.75
2023-03-06T01:49:14.524Z,95589.13
2023-03-06T01:51:54.071Z,95581.84
2023-03-06T01:54:27.174Z,95588.25
2023-03-06T01:57:19.204Z,95582.22
2023-03-06T01:59:52.954Z,95577.53
2023-03-06T02:02:19.924Z,95574.94
2023-03-06T02:04:47.604Z,95570.53
2023-03-06T02:07:17.048Z,95564.53
2023-03-06T02:09:44.014Z,95564.53
2023-03-06T02:12:16.439Z,95561.91
2023-03-06T02:14:44.094Z,95557.72
2023-03-06T02:17:14.827Z,95560.84
2023-03-06T02:20:15.642Z,95545.69
2023-03-06T02:23:33.982Z,95542.44
2023-03-06T02:26:01.913Z,95535.63
2023-03-06T02:28:28.798Z,95536.16
2023-03-06T02:30:56.935Z,95525.84
2023-03-06T02:33:28.118Z,95528.06
2023-03-06T02:35:58.862Z,95528.06
2023-03-06T02:38:31.994Z,95535.28
2023-03-06T02:41:01.820Z,95526.81
2023-03-06T02:43:33.218Z,95524.06
2023-03-06T02:46:00.249Z,95527.72
2023-03-06T02:48:27.078Z,95519.84
2023-03-06T02:50:53.901Z,95512.66
2023-03-06T02:53:21.620Z,95515.00
2023-03-06T02:55:49.368Z,95521.44
2023-03-06T02:58:19.602Z,95507.81
2023-03-06T03:00:48.018Z,95501.63
2023-03-06T03:03:14.962Z,95502.25
2023-03-06T03:05:41.914Z,95504.22
2023-03-06T03:08:09.116Z,95499.38
2023-03-06T03:10:35.997Z,95496.63
2023-03-06T03:13:02.783Z,95497.41
2023-03-06T03:15:29.914Z,95488.59
2023-03-06T03:17:56.746Z,95492.81
2023-03-06T03:20:23.976Z,95486.63
2023-03-06T03:22:54.907Z,95482.59
2023-03-06T03:25:24.909Z,95489.59
2023-03-06T03:27:52.213Z,95483.41
2023-03-06T03:30:19.398Z,95478.56
2023-03-06T03:32:46.286Z,95477.38
2023-03-06T03:35:13.342Z,95479.97
2023-03-06T03:37:40.217Z,95470.19
2023-03-06T03:40:08.619Z,95470.03
2023-03-06T03:42:35.463Z,95469.41
2023-03-06T03:45:02.318Z,95463.13
2023-03-06T03:47:29.092Z,95469.22
2023-03-06T03:49:55.932Z,95465.75
2023-03-06T03:52:22.768Z,95468.44
2023-03-06T03:54:49.607Z,95462.78
2023-03-06T03:57:16.520Z,95451.41
2023-03-06T03:59:43.346Z,95461.59
2023-03-06T04:02:10.244Z,95456.41
2023-03-06T04:04:37.139Z,95462.88
2023-03-06T04:07:04.395Z,95451.19
2023-03-06T04:09:31.291Z,95443.94
2023-03-06T04:11:58.088Z,95448.16
2023-03-06T04:14:24.880Z,95447.88
2023-03-06T04:16:51.781Z,95441.84
2023-03-06T04:19:18.663Z,95435.84
2023-03-06T04:21:45.619Z,95436.31
2023-03-06T04:24:12.536Z,95433.91
2023-03-06T04:26:39.379Z,95435.84
2023-03-06T04:29:06.291Z,95439.13
2023-03-06T04:31:33.177Z,95435.53
2023-03-06T04:34:00.018Z,95441.34
2023-03-06T04:36:33.615Z,95433.25
2023-03-06T04:39:01.338Z,95435.16
2023-03-06T04:41:28.299Z,95438.38
2023-03-06T04:43:55.291Z,95430.13
2023-03-06T04:46:22.325Z,95431.19
2023-03-06T04:48:49.126Z,95421.69
2023-03-06T04:51:15.994Z,95429.94
2023-03-06T04:53:42.872Z,95423.66
2023-03-06T04:56:09.992Z,95418.63
2023-03-06T04:58:37.080Z,95417.22
2023-03-06T05:01:04.422Z,95412.91
2023-03-06T05:03:31.302Z,95418.94
2023-03-06T05:05:58.175Z,95409.78
2023-03-06T05:08:25.266Z,95409.84
2023-03-06T05:11:01.120Z,95409.50
2023-03-06T05:13:28.689Z,95409.28
2023-03-06T05:15:55.512Z,95402.31
2023-03-06T05:18:22.566Z,95406.53
2023-03-06T05:20:49.340Z,95404.00
2023-03-06T05:23:16.166Z,95408.59
2023-03-06T05:25:43.045Z,95412.19
2023-03-06T05:28:09.949Z,95399.53
2023-03-06T05:30:37.090Z,95403.38
2023-03-06T05:33:04.117Z,95411.00
2023-03-06T05:35:31.670Z,95410.19
2023-03-06T05:37:58.600Z,95404.97
2023-03-06T05:40:25.433Z,95409.19
2023-03-06T05:42:52.363Z,95399.44
2023-03-06T05:45:19.320Z,95401.88
2023-03-06T05:47:46.252Z,95401.03
2023-03-06T05:50:14.783Z,95408.78
2023-03-06T05:52:42.123Z,95407.16
2023-03-06T05:55:12.321Z,95406.25
2023-03-06T05:57:39.264Z,95410.63
2023-03-06T06:00:07.565Z,95413.69
2023-03-06T06:02:34.421Z,95404.97
2023-03-06T06:05:03.310Z,95405.53
2023-03-06T06:07:30.208Z,95406.78
2023-03-06T06:09:57.045Z,95402.84
2023-03-06T06:12:23.914Z,95407.91
2023-03-06T06:14:50.887Z,95407.31
2023-03-06T06:17:17.844Z,95403.97
2023-03-06T06:19:45.008Z,95404.97
2023-03-06T06:22:12.343Z,95404.97
2023-03-06T06:24:39.299Z,95400.91
2023-03-06T06:27:06.808Z,95407.81
2023-03-06T06:29:33.676Z,95410.31
2023-03-06T06:32:01.387Z,95412.16
2023-03-06T06:34:28.578Z,95410.44
2023-03-06T06:36:55.522Z,95412.19
2023-03-06T06:39:23.817Z,95413.66
2023-03-06T06:42:05.927Z,95413.53
2023-03-06T06:44:37.622Z,95416.53
2023-03-06T06:47:24.049Z,95417.84
2023-03-06T06:49:53.367Z,95416.59
2023-03-06T06:52:20.585Z,95413.19
2023-03-06T06:54:47.472Z,95418.84
2023-03-06T06:57:15.214Z,95412.88
2023-03-06T06:59:42.173Z,95409.28
2023-03-06T07:02:12.780Z,95423.19
2023-03-06T07:04:52.315Z,95416.53
2023-03-06T07:07:25.412Z,95416.94
2023-03-06T07:09:53.004Z,95416.56
2023-03-06T07:12:19.813Z,95422.25
2023-03-06T07:14:46.922Z,95420.94
2023-03-06T07:17:13.776Z,95423.97
2023-03-06T07:19:40.611Z,95422.84
2023-03-06T07:22:07.762Z,95422.88
2023-03-06T07:24:34.883Z,95426.44
2023-03-06T07:27:01.732Z,95426.81
2023-03-06T07:29:29.222Z,95429.88
2023-03-06T07:31:56.058Z,95420.66
2023-03-06T07:34:22.969Z,95426.72
2023-03-06T07:36:50.816Z,95424.75
2023-03-06T07:39:17.750Z,95428.38
2023-03-06T07:41:44.700Z,95418.97
2023-03-06T07:44:11.752Z,95428.59
2023-03-06T07:46:38.621Z,95429.44
2023-03-06T07:49:05.517Z,95431.88
2023-03-06T07:51:32.378Z,95433.84
2023-03-06T07:53:59.323Z,95438.38
2023-03-06T07:56:26.114Z,95448.63
2023-03-06T07:58:53.158Z,95451.56
2023-03-06T08:01:23.592Z,95441.69
2023-03-06T08:03:51.299Z,95446.22
2023-03-06T08:06:27.012Z,95446.09
2023-03-06T08:08:55.656Z,95455.19
2023-03-06T08:11:26.375Z,95456.41
2023-03-06T08:13:54.410Z,95443.97
2023-03-06T08:16:24.337Z,95453.56
2023-03-06T08:18:51.629Z,95449.06
2023-03-06T08:21:23.576Z,95452.34
2023-03-06T08:23:51.512Z,95448.81
2023-03-06T08:26:24.798Z,95458.28
2023-03-06T08:28:56.002Z,95448.84
2023-03-06T08:31:25.663Z,95452.91
2023-03-06T08:33:53.230Z,95462.47
2023-03-06T08:36:20.129Z,95458.91
2023-03-06T08:38:47.075Z,95460.88
2023-03-06T08:41:14.117Z,95455.25
2023-03-06T08:43:41.041Z,95447.88
2023-03-06T08:46:08.071Z,95461.41
2023-03-06T08:48:34.990Z,95465.72
2023-03-06T08:51:01.837Z,95454.97
2023-03-06T08:53:42.213Z,95462.16
2023-03-06T08:56:28.790Z,95473.22
2023-03-06T08:58:57.411Z,95457.19
2023-03-06T09:01:31.587Z,95471.53
2023-03-06T09:04:01.673Z,95465.88
2023-03-06T09:06:34.017Z,95472.94
2023-03-06T09:09:00.880Z,95461.00
2023-03-06T09:11:28.676Z,95467.72
2023-03-06T09:13:56.407Z,95460.09
2023-03-06T09:16:25.181Z,95459.13
2023-03-06T09:18:53.995Z,95453.50
2023-03-06T09:21:22.549Z,95454.72
2023-03-06T09:23:50.063Z,95465.16
2023-03-06T09:26:17.191Z,95469.38
2023-03-06T09:28:44.032Z,95459.94
2023-03-06T09:31:20.122Z,95465.19
2023-03-06T09:33:48.165Z,95465.63
2023-03-06T09:36:21.406Z,95468.03
2023-03-06T09:38:49.862Z,95466.59
2023-03-06T09:41:36.831Z,95467.59
2023-03-06T09:44:21.640Z,95468.44
2023-03-06T09:47:03.829Z,95465.59
2023-03-06T09:50:10.793Z,95465.22
2023-03-06T09:53:08.674Z,95451.50
2023-03-06T09:55:40.281Z,95451.50
2023-03-06T09:58:29.275Z,95452.47
2023-03-06T10:01:07.213Z,95457.06
2023-03-06T10:03:48.729Z,95472.25
2023-03-06T10:06:31.316Z,95461.59
2023-03-06T10:09:35.306Z,95460.94
2023-03-06T10:12:19.278Z,95465.59
2023-03-06T10:15:20.288Z,95456.38
2023-03-06T10:17:48.055Z,95446.69
2023-03-06T10:20:25.611Z,95452.31
2023-03-06T10:23:22.036Z,95459.59
2023-03-06T10:26:02.640Z,95456.56
2023-03-06T10:29:00.451Z,95451.94
2023-03-06T10:31:29.026Z,95448.31
2023-03-06T10:33:58.593Z,95449.09
2023-03-06T10:36:28.086Z,95443.28
2023-03-06T10:38:58.229Z,95452.13
2023-03-06T10:41:32.732Z,95457.56
2023-03-06T10:44:05.341Z,95449.91
2023-03-06T10:46:44.377Z,95442.84
2023-03-06T10:49:34.589Z,95439.44
2023-03-06T10:52:21.280Z,95443.28
2023-03-06T10:54:48.614Z,95429.38
2023-03-06T10:57:29.479Z,95432.59
2023-03-06T10:59:59.869Z,95438.44
2023-03-06T11:02:37.259Z,95440.25
2023-03-06T11:05:06.556Z,95435.00
2023-03-06T11:07:35.977Z,95422.84
2023-03-06T11:10:20.266Z,95418.03
2023-03-06T11:13:22.881Z,95431.56
2023-03-06T11:16:11.898Z,95430.31
2023-03-06T11:18:55.971Z,95430.97
2023-03-06T11:21:35.486Z,95426.94
2023-03-06T11:24:19.252Z,95422.09
2023-03-06T11:26:59.156Z,95426.94
2023-03-06T11:29:43.434Z,95422.56
2023-03-06T11:32:32.504Z,95425.75
2023-03-06T11:35:13.976Z,95426.94
2023-03-06T11:38:06.996Z,95421.69
2023-03-06T11:40:57.934Z,95422.34
2023-03-06T11:43:51.198Z,95418.69
2023-03-06T11:46:25.366Z,95418.66
2023-03-06T11:49:17.014Z,95423.53
2023-03-06T11:51:51.923Z,95426.03
2023-03-06T11:54:18.810Z,95428.88
2023-03-06T11:56:48.589Z,95416.28
2023-03-06T11:59:54.935Z,95418.41
2023-03-06T12:03:08.092Z,95406.84
2023-03-06T12:06:15.345Z,95413.22
2023-03-06T12:09:17.376Z,95407.59
2023-03-06T12:12:02.460Z,95403.38
2023-03-06T12:14:50.264Z,95403.97
2023-03-06T12:17:54.261Z,95397.31
2023-03-06T12:20:56.843Z,95394.97
2023-03-06T12:23:35.456Z,95387.09
2023-03-06T12:26:36.158Z,95385.91
2023-03-06T12:29:49.352Z,95381.13
2023-03-06T12:32:45.418Z,95379.91
2023-03-06T12:35:32.356Z,95393.97
2023-03-06T12:38:25.243Z,95383.94
2023-03-06T12:41:41.656Z,95387.53
2023-03-06T12:44:38.721Z,95385.91
2023-03-06T12:47:10.880Z,95382.34
2023-03-06T12:49:45.593Z,95378.66
2023-03-06T12:52:30.273Z,95383.13
2023-03-06T12:55:00.392Z,95383.94
2023-03-06T12:57:27.765Z,95381.50
2023-03-06T12:59:55.294Z,95379.50
2023-03-06T13:02:56.412Z,95377.84
2023-03-06T13:06:13.187Z,95371.75
2023-03-06T13:09:02.350Z,95375.72
2023-03-06T13:11:50.209Z,95377.53
2023-03-06T13:14:34.259Z,95374.75
2023-03-06T13:17:37.097Z,95376.22
2023-03-06T13:20:16.372Z,95382.84
2023-03-06T13:22:45.774Z,95374.00
2023-03-06T13:25:21.493Z,95369.25
2023-03-06T13:27:53.885Z,95361.72
2023-03-06T13:30:36.963Z,95360.81
2023-03-06T13:33:37.120Z,95364.06
2023-03-06T13:36:35.292Z,95354.06
2023-03-06T13:39:12.889Z,95350.50
2023-03-06T13:41:59.312Z,95352.53
2023-03-06T13:44:26.058Z,95362.56
2023-03-06T13:47:16.768Z,95364.56
2023-03-06T13:49:46.962Z,95353.09
2023-03-06T13:52:35.864Z,95363.13
2023-03-06T13:55:31.296Z,95361.13
2023-03-06T13:58:44.097Z,95359.00
2023-03-06T14:01:41.165Z,95354.63
2023-03-06T14:04:53.381Z,95353.94
2023-03-06T14:07:32.357Z,95349.09
2023-03-06T14:10:23.252Z,95352.44
2023-03-06T14:12:49.992Z,95347.91
2023-03-06T14:15:25.978Z,95353.88
2023-03-06T14:18:05.774Z,95339.97
2023-03-06T14:20:57.204Z,95344.06
2023-03-06T14:23:29.633Z,95344.19
2023-03-06T14:26:15.320Z,95337.53
2023-03-06T14:28:53.358Z,95337.88
2023-03-06T14:31:27.251Z,95334.44
2023-03-06T14:33:57.370Z,95330.16
2023-03-06T14:36:33.633Z,95324.63
2023-03-06T14:39:13.773Z,95331.97
2023-03-06T14:41:41.617Z,95336.66
2023-03-06T14:44:17.798Z,95328.81
2023-03-06T14:46:46.983Z,95338.56
2023-03-06T14:49:15.644Z,95322.13
2023-03-06T14:51:52.076Z,95330.16
2023-03-06T14:54:30.224Z,95337.16
2023-03-06T14:57:15.668Z,95333.53
2023-03-06T15:00:01.102Z,95339.63
2023-03-06T15:02:32.924Z,95336.44
2023-03-06T15:05:17.853Z,95337.88
2023-03-06T15:07:45.497Z,95331.00
2023-03-06T15:10:29.670Z,95337.16
2023-03-06T15:13:11.327Z,95329.91
2023-03-06T15:15:38.310Z,95333.53
2023-03-06T15:18:36.176Z,95334.91
2023-03-06T15:21:21.643Z,95330.47
2023-03-06T15:23:51.483Z,95335.19
2023-03-06T15:26:33.449Z,95333.81
2023-03-06T15:29:20.975Z,95327.56
2023-03-06T15:31:47.984Z,95335.22
2023-03-06T15:34:23.606Z,95337.09
2023-03-06T15:36:58.104Z,95334.50
2023-03-06T15:39:46.431Z,95346.81
2023-03-06T15:42:26.076Z,95342.47
2023-03-06T15:45:02.886Z,95338.84
2023-03-06T15:47:29.735Z,95341.91
2023-03-06T15:49:56.903Z,95350.47
2023-03-06T15:52:24.227Z,95354.28
2023-03-06T15:54:51.087Z,95351.28
2023-03-06T15:57:25.373Z,95354.56
2023-03-06T15:59:53.578Z,95355.19
2023-03-06T16:02:23.005Z,95360.59
2023-03-06T16:04:50.832Z,95364.63
2023-03-06T16:07:17.665Z,95363.03
2023-03-06T16:09:45.226Z,95362.63
2023-03-06T16:12:21.244Z,95361.41
2023-03-06T16:14:49.352Z,95367.44
2023-03-06T16:17:17.120Z,95364.66
2023-03-06T16:19:44.338Z,95362.63
2023-03-06T16:22:11.345Z,95366.25
2023-03-06T16:24:38.296Z,95361.22
2023-03-06T16:27:06.930Z,95365.44
2023-03-06T16:29:33.896Z,95364.22
2023-03-06T16:32:01.653Z,95349.34
2023-03-06T16:34:28.861Z,95357.00
2023-03-06T16:36:56.102Z,95356.19
2023-03-06T16:39:24.446Z,95363.03
2023-03-06T16:41:51.576Z,95373.28
2023-03-06T16:44:19.497Z,95372.28
2023-03-06T16:46:49.074Z,95367.03
2023-03-06T16:49:22.981Z,95366.25
2023-03-06T16:51:50.977Z,95367.25
2023-03-06T16:54:18.293Z,95377.50
2023-03-06T16:56:45.448Z,95357.38
2023-03-06T16:59:12.718Z,95368.44
2023-03-06T17:01:42.618Z,95365.44
2023-03-06T17:04:09.937Z,95368.63
2023-03-06T17:06:37.267Z,95377.06
2023-03-06T17:09:04.527Z,95367.44
2023-03-06T17:11:31.556Z,95368.03
2023-03-06T17:13:58.500Z,95375.47
2023-03-06T17:16:25.453Z,95377.88
2023-03-06T17:18:52.435Z,95373.84
2023-03-06T17:21:19.356Z,95379.88
2023-03-06T17:23:46.362Z,95385.09
2023-03-06T17:26:19.032Z,95388.75
2023-03-06T17:28:47.103Z,95381.88
2023-03-06T17:31:20.079Z,95387.50
2023-03-06T17:33:48.024Z,95395.16
2023-03-06T17:36:15.896Z,95394.13
2023-03-06T17:38:43.575Z,95386.63
2023-03-06T17:41:11.759Z,95387.44
2023-03-06T17:43:39.943Z,95397.50
2023-03-06T17:46:11.733Z,95397.09
2023-03-06T17:48:39.705Z,95394.28
2023-03-06T17:51:07.471Z,95401.91
2023-03-06T17:53:34.795Z,95403.13
2023-03-06T17:56:05.084Z,95401.09
2023-03-06T17:58:32.558Z,95400.72
2023-03-06T18:00:59.837Z,95409.88
2023-03-06T18:03:26.946Z,95406.69
2023-03-06T18:06:04.356Z,95415.31
2023-03-06T18:08:32.242Z,95413.09
2023-03-06T18:11:05.233Z,95416.13
2023-03-06T18:13:33.587Z,95410.09
2023-03-06T18:16:01.012Z,95415.13
2023-03-06T18:18:28.839Z,95408.50
2023-03-06T18:20:56.006Z,95419.53
2023-03-06T18:23:23.429Z,95412.09
2023-03-06T18:25:50.659Z,95414.28
2023-03-06T18:28:17.741Z,95420.72
2023-03-06T18:30:44.564Z,95413.41
2023-03-06T18:33:11.370Z,95415.84
2023-03-06T18:35:38.212Z,95414.22
2023-03-06T18:38:05.130Z,95421.84
2023-03-06T18:40:32.015Z,95419.00
2023-03-06T18:42:58.846Z,95423.81
2023-03-06T18:45:25.934Z,95434.25
2023-03-06T18:47:52.837Z,95425.38
2023-03-06T18:50:20.169Z,95431.34
2023-03-06T18:52:47.220Z,95413.50
2023-03-06T18:55:14.129Z,95427.34
2023-03-06T18:57:42.557Z,95420.09
2023-03-06T19:00:10.346Z,95421.91
2023-03-06T19:02:37.166Z,95429.13
2023-03-06T19:05:04.674Z,95426.88
2023-03-06T19:07:31.501Z,95422.06
2023-03-06T19:09:58.347Z,95428.84
2023-03-06T19:12:25.149Z,95425.22
2023-03-06T19:14:52.001Z,95420.19
2023-03-06T19:17:18.852Z,95428.22
2023-03-06T19:19:49.347Z,95427.25
2023-03-06T19:22:16.239Z,95422.84
2023-03-06T19:24:43.089Z,95423.59
2023-03-06T19:27:11.366Z,95433.81
2023-03-06T19:29:38.546Z,95430.03
2023-03-06T19:32:05.816Z,95427.44
2023-03-06T19:34:32.737Z,95426.44
2023-03-06T19:36:59.580Z,95428.41
2023-03-06T19:39:26.590Z,95429.22
2023-03-06T19:41:53.463Z,95428.00
2023-03-06T19:44:20.330Z,95429.31
2023-03-06T19:46:47.170Z,95443.59
2023-03-06T19:49:16.830Z,95436.81
2023-03-06T19:51:44.411Z,95431.56
2023-03-06T19:54:13.061Z,95420.72
2023-03-06T19:56:40.386Z,95423.19
2023-03-06T19:59:07.245Z,95425.94
2023-03-06T20:01:34.361Z,95422.34
2023-03-06T20:04:01.898Z,95422.88
2023-03-06T20:06:33.608Z,95427.09
2023-03-06T20:09:03.527Z,95423.63
2023-03-06T20:11:30.674Z,95435.91
2023-03-06T20:14:00.103Z,95447.34
2023-03-06T20:16:29.099Z,95431.56
2023-03-06T20:18:58.667Z,95433.41
2023-03-06T20:21:31.168Z,95438.00
2023-03-06T20:23:58.374Z,95438.00
2023-03-06T20:26:28.239Z,95443.22
2023-03-06T20:28:55.920Z,95433.03
2023-03-06T20:31:26.406Z,95432.41
2023-03-06T20:33:56.432Z,95440.00
2023-03-06T20:36:30.098Z,95428.19
2023-03-06T20:39:00.262Z,95432.00
2023-03-06T20:41:30.764Z,95427.59
2023-03-06T20:44:03.491Z,95428.41
2023-03-06T20:46:31.053Z,95427.56
2023-03-06T20:48:59.416Z,95432.41
2023-03-06T20:51:37.497Z,95436.38
2023-03-06T20:54:09.155Z,95435.78
2023-03-06T20:56:39.441Z,95434.97
2023-03-06T20:59:08.711Z,95429.19
2023-03-06T21:01:40.983Z,95435.66
2023-03-06T21:04:10.128Z,95425.22
2023-03-06T21:06:37.895Z,95429.41
2023-03-06T21:09:06.404Z,95431.66
2023-03-06T21:11:35.477Z,95430.66
2023-03-06T21:14:03.021Z,95422.38
2023-03-06T21:16:33.205Z,95424.78
2023-03-06T21:19:00.731Z,95417.97
2023-03-06T21:21:32.835Z,95416.75
2023-03-06T21:24:01.240Z,95414.75
2023-03-06T21:26:30.664Z,95417.72
2023-03-06T21:28:58.937Z,95427.50
2023-03-06T21:31:27.134Z,95418.69
2023-03-06T21:33:55.033Z,95422.69
2023-03-06T21:36:22.578Z,95428.31
2023-03-06T21:38:51.115Z,95421.75
2023-03-06T21:41:26.655Z,95419.06
2023-03-06T21:43:58.479Z,95425.25
2023-03-06T21:46:27.267Z,95421.03
2023-03-06T21:48:54.470Z,95424.69
2023-03-06T21:51:23.646Z,95417.09
2023-03-06T21:53:51.958Z,95424.72
2023-03-06T21:56:21.944Z,95415.44
2023-03-06T21:58:48.848Z,95423.50
2023-03-06T22:01:25.850Z,95415.91
2023-03-06T22:03:53.274Z,95415.31
2023-03-06T22:06:25.036Z,95405.94
2023-03-06T22:08:52.378Z,95410.78
2023-03-06T22:11:22.254Z,95409.16
2023-03-06T22:13:49.779Z,95405.16
2023-03-06T22:16:17.601Z,95410.00
2023-03-06T22:18:49.460Z,95413.75
2023-03-06T22:21:19.796Z,95403.94
2023-03-06T22:23:52.412Z,95408.16
2023-03-06T22:26:19.721Z,95400.72
2023-03-06T22:28:46.782Z,95393.91
2023-03-06T22:31:20.412Z,95400.69
2023-03-06T22:33:51.171Z,95391.06
2023-03-06T22:36:19.386Z,95394.28
2023-03-06T22:38:47.691Z,95392.25
2023-03-06T22:41:17.444Z,95396.28
2023-03-06T22:43:44.268Z,95387.09
2023-03-06T22:46:15.251Z,95380.88
2023-03-06T22:48:42.599Z,95373.06
2023-03-06T22:51:20.843Z,95368.63
2023-03-06T22:53:48.814Z,95387.69
2023-03-06T22:56:18.615Z,95372.56
2023-03-06T22:58:46.371Z,95355.38
2023-03-06T23:01:15.336Z,95360.81
2023-03-06T23:03:48.563Z,95372.69
2023-03-06T23:06:36.883Z,95356.22
2023-03-06T23:09:08.434Z,95357.44
2023-03-06T23:11:35.356Z,95344.63
2023-03-06T23:14:02.217Z,95357.41
2023-03-06T23:16:29.343Z,95343.59
2023-03-06T23:18:56.214Z,95337.34
2023-03-06T23:21:24.314Z,95342.16
2023-03-06T23:23:53.923Z,95352.97
2023-03-06T23:26:25.322Z,95352.56
2023-03-06T23:28:53.170Z,95359.13
2023-03-06T23:31:29.200Z,95352.13
2023-03-06T23:34:01.824Z,95346.50
2023-03-06T23:36:30.400Z,95362.72
2023-03-06T23:38:58.367Z,95352.13
2023-03-06T23:41:25.797Z,95361.13
2023-03-06T23:43:55.183Z,95360.50
2023-03-06T23:46:22.670Z,95360.13
2023-03-06T23:48:49.665Z,95359.94
2023-03-06T23:51:19.809Z,95353.94
2023-03-06T23:53:47.816Z,95360.53
2023-03-06T23:56:15.316Z,95351.31
2023-03-06T23:58:42.466Z,95353.69
